Time;durP1;ratioP1;P1;durP2;ratioP2;P2;SDS_P1;SDS_P2;PMS_P1;PMS_P2;Temp;Humidity;BMP_temperature;BMP_pressure;BME280_temperature;BME280_humidity;BME280_pressure;Samples;Min_cycle;Max_cycle;Signal;HPM_P1;HPM_P2
2022/06/30 00:00:36;;;;;;;50.03;33.43;;;;;;;;;;6267855;28;20048;-47
2022/06/30 00:03:39;;;;;;;47.88;31.80;;;;;;;;;;6266173;28;20049;-48
2022/06/30 00:06:40;;;;;;;48.77;32.93;;;;;;;;;;6263980;28;20071;-51
2022/06/30 00:09:40;;;;;;;44.83;32.33;;;;;;;;;;6267644;28;20135;-50
2022/06/30 00:12:41;;;;;;;48.73;31.83;;;;;;;;;;6265024;28;20519;-52
2022/06/30 00:15:42;;;;;;;45.10;31.90;;;;;;;;;;6266182;28;20051;-48
2022/06/30 00:18:43;;;;;;;47.00;31.90;;;;;;;;;;6264736;28;20099;-52
2022/06/30 00:21:43;;;;;;;50.57;33.73;;;;;;;;;;6265142;28;20045;-48
2022/06/30 00:24:44;;;;;;;42.90;29.97;;;;;;;;;;6266242;28;20048;-58
2022/06/30 00:27:45;;;;;;;49.67;33.47;;;;;;;;;;6265368;28;20139;-47
2022/06/30 00:30:48;;;;;;;44.27;31.40;;;;;;;;;;6265943;28;20500;-48
2022/06/30 00:33:50;;;;;;;44.30;32.05;;;;;;;;;;6262874;28;20099;-49
2022/06/30 00:36:50;;;;;;;47.55;33.05;;;;;;;;;;6258940;28;20048;-48
2022/06/30 00:39:51;;;;;;;44.73;31.43;;;;;;;;;;6261035;28;20041;-49
2022/06/30 00:42:51;;;;;;;42.33;30.70;;;;;;;;;;6263296;28;20330;-49
2022/06/30 00:45:52;;;;;;;45.63;32.57;;;;;;;;;;6266359;28;20491;-50
2022/06/30 00:48:53;;;;;;;47.57;32.53;;;;;;;;;;6265326;28;20786;-54
2022/06/30 00:51:53;;;;;;;45.77;30.80;;;;;;;;;;6264803;28;20037;-51
2022/06/30 00:54:56;;;;;;;46.00;31.40;;;;;;;;;;6264569;28;20095;-48
2022/06/30 00:57:59;;;;;;;47.55;32.85;;;;;;;;;;6261404;28;20053;-49
2022/06/30 01:01:01;;;;;;;44.35;31.70;;;;;;;;;;6259013;28;20045;-52
2022/06/30 01:04:02;;;;;;;45.22;32.03;;;;;;;;;;6258577;28;20095;-48
2022/06/30 01:07:04;;;;;;;45.88;31.67;;;;;;;;;;6260624;28;20137;-48
2022/06/30 01:13:24;;;;;;;44.38;30.63;;;;;;;;;;6261615;28;20076;-47
2022/06/30 01:16:24;;;;;;;42.33;29.70;;;;;;;;;;6256926;28;20457;-49
2022/06/30 01:19:25;;;;;;;45.17;31.43;;;;;;;;;;6261247;28;20048;-51
2022/06/30 01:22:26;;;;;;;48.17;30.60;;;;;;;;;;6259296;28;20068;-51
2022/06/30 01:25:27;;;;;;;45.80;31.98;;;;;;;;;;6260470;28;20040;-50
2022/06/30 01:28:27;;;;;;;42.77;30.30;;;;;;;;;;6260611;28;20045;-50
2022/06/30 01:31:28;;;;;;;40.77;28.83;;;;;;;;;;6258786;28;20080;-48
2022/06/30 01:34:28;;;;;;;43.40;30.07;;;;;;;;;;6259774;28;20396;-48
2022/06/30 01:37:44;;;;;;;43.33;30.90;;;;;;;;;;6259080;28;20494;-48
2022/06/30 01:40:45;;;;;;;59.45;31.45;;;;;;;;;;6258809;28;20904;-47
2022/06/30 01:43:47;;;;;;;37.20;27.33;;;;;;;;;;6260821;28;20122;-49
2022/06/30 01:46:48;;;;;;;49.35;28.10;;;;;;;;;;6259378;28;20068;-48
2022/06/30 01:49:49;;;;;;;;;;;;;;;;;;6259802;28;20077;-52
2022/06/30 01:52:50;;;;;;;37.03;27.42;;;;;;;;;;6262241;28;19931;-49
2022/06/30 01:55:50;;;;;;;38.60;28.73;;;;;;;;;;6255118;28;20052;-47
2022/06/30 01:58:51;;;;;;;40.70;29.90;;;;;;;;;;6257916;28;20492;-47
2022/06/30 02:01:52;;;;;;;38.70;27.63;;;;;;;;;;6262757;28;20045;-49
2022/06/30 02:04:53;;;;;;;45.13;30.40;;;;;;;;;;6257262;28;20473;-50
2022/06/30 02:07:54;;;;;;;38.28;28.52;;;;;;;;;;6259408;28;20590;-49
2022/06/30 02:10:55;;;;;;;46.93;32.47;;;;;;;;;;6259000;28;20041;-50
2022/06/30 02:13:55;;;;;;;40.10;28.77;;;;;;;;;;6259507;28;20082;-48
2022/06/30 02:16:56;;;;;;;45.00;31.97;;;;;;;;;;6256416;28;20143;-48
2022/06/30 02:19:56;;;;;;;45.43;30.73;;;;;;;;;;6259136;28;20064;-49
2022/06/30 02:22:59;;;;;;;42.97;30.80;;;;;;;;;;6257326;28;20052;-48
2022/06/30 02:26:01;;;;;;;44.97;30.70;;;;;;;;;;6254139;28;20175;-51
2022/06/30 02:29:03;;;;;;;44.80;28.53;;;;;;;;;;6257313;28;20128;-50
2022/06/30 02:32:04;;;;;;;41.67;29.08;;;;;;;;;;6258589;28;20044;-47
2022/06/30 02:35:05;;;;;;;43.08;30.00;;;;;;;;;;6254967;28;20052;-49
2022/06/30 02:38:10;;;;;;;45.00;31.20;;;;;;;;;;6256688;28;20083;-49
2022/06/30 02:41:11;;;;;;;44.10;30.13;;;;;;;;;;6254370;28;20059;-49
2022/06/30 02:44:11;;;;;;;43.00;29.33;;;;;;;;;;6257848;28;20068;-48
2022/06/30 02:47:12;;;;;;;42.50;29.47;;;;;;;;;;6259282;28;20415;-51
2022/06/30 02:50:13;;;;;;;42.67;27.77;;;;;;;;;;6255140;28;20064;-49
2022/06/30 02:53:13;;;;;;;36.90;26.77;;;;;;;;;;6256726;28;20122;-52
2022/06/30 02:56:14;;;;;;;40.50;27.60;;;;;;;;;;6257286;28;20053;-48
2022/06/30 02:59:15;;;;;;;35.00;25.83;;;;;;;;;;6258945;28;20485;-48
2022/06/30 03:02:15;;;;;;;38.60;27.37;;;;;;;;;;6259890;28;20412;-48
2022/06/30 03:05:16;;;;;;;37.80;27.37;;;;;;;;;;6257065;28;20453;-48
2022/06/30 03:08:17;;;;;;;39.87;28.57;;;;;;;;;;6254461;28;20424;-49
2022/06/30 03:11:17;;;;;;;41.80;28.37;;;;;;;;;;6259573;28;20653;-47
2022/06/30 03:14:18;;;;;;;39.50;26.73;;;;;;;;;;6259598;28;20056;-50
2022/06/30 03:17:19;;;;;;;40.73;28.53;;;;;;;;;;6257196;28;20049;-50
2022/06/30 03:20:19;;;;;;;39.87;27.97;;;;;;;;;;6257685;28;20800;-48
2022/06/30 03:23:20;;;;;;;40.17;28.67;;;;;;;;;;6256192;28;20713;-48
2022/06/30 03:26:20;;;;;;;44.07;28.90;;;;;;;;;;6257158;28;20067;-52
2022/06/30 03:29:21;;;;;;;42.07;29.00;;;;;;;;;;6257214;28;20128;-47
2022/06/30 03:32:22;;;;;;;41.83;29.57;;;;;;;;;;6256971;28;20045;-51
2022/06/30 03:35:22;;;;;;;42.67;28.50;;;;;;;;;;6258083;28;20056;-48
2022/06/30 03:38:23;;;;;;;41.77;27.97;;;;;;;;;;6255456;28;20120;-48
2022/06/30 03:41:24;;;;;;;41.23;28.37;;;;;;;;;;6261610;28;20065;-47
2022/06/30 03:44:24;;;;;;;42.43;29.67;;;;;;;;;;6262895;28;20049;-50
2022/06/30 03:47:25;;;;;;;43.43;30.50;;;;;;;;;;6264339;28;20067;-47
2022/06/30 03:50:26;;;;;;;46.77;32.50;;;;;;;;;;6267961;28;20053;-50
2022/06/30 03:53:26;;;;;;;49.33;32.67;;;;;;;;;;6267176;28;20105;-47
2022/06/30 03:56:27;;;;;;;48.33;33.13;;;;;;;;;;6258791;28;20496;-48
2022/06/30 03:59:28;;;;;;;43.03;32.03;;;;;;;;;;6262635;28;20041;-50
2022/06/30 04:02:28;;;;;;;43.42;30.90;;;;;;;;;;6261420;28;20040;-49
2022/06/30 04:05:29;;;;;;;45.00;32.10;;;;;;;;;;6260833;28;20148;-47
2022/06/30 04:08:30;;;;;;;47.83;33.53;;;;;;;;;;6265171;28;20148;-47
2022/06/30 04:11:30;;;;;;;47.60;32.83;;;;;;;;;;6263956;28;20154;-52
2022/06/30 04:14:31;;;;;;;51.93;34.27;;;;;;;;;;6265073;28;20111;-48
2022/06/30 04:17:34;;;;;;;51.33;35.37;;;;;;;;;;6265446;28;20182;-50
2022/06/30 04:20:35;;;;;;;54.08;36.03;;;;;;;;;;6267646;28;20049;-47
2022/06/30 04:23:35;;;;;;;53.47;35.40;;;;;;;;;;6261871;28;20164;-48
2022/06/30 04:26:36;;;;;;;49.97;33.77;;;;;;;;;;6259629;28;20045;-52
2022/06/30 04:29:37;;;;;;;50.70;33.90;;;;;;;;;;6266606;28;20037;-50
2022/06/30 04:32:37;;;;;;;50.33;33.27;;;;;;;;;;6264703;28;20087;-54
2022/06/30 04:35:38;;;;;;;50.17;34.70;;;;;;;;;;6265314;28;20381;-48
2022/06/30 04:38:39;;;;;;;46.07;32.67;;;;;;;;;;6261833;28;20169;-53
2022/06/30 04:41:39;;;;;;;49.03;32.53;;;;;;;;;;6262120;28;20060;-51
2022/06/30 04:44:40;;;;;;;48.37;33.13;;;;;;;;;;6260008;28;20517;-48
2022/06/30 04:47:41;;;;;;;50.03;34.17;;;;;;;;;;6263441;28;20549;-48
2022/06/30 04:50:42;;;;;;;54.45;34.30;;;;;;;;;;6264819;28;20583;-48
2022/06/30 04:53:43;;;;;;;52.63;33.40;;;;;;;;;;6265501;28;20041;-51
2022/06/30 04:56:43;;;;;;;52.15;36.08;;;;;;;;;;6263194;28;20104;-49
2022/06/30 04:59:44;;;;;;;45.57;31.20;;;;;;;;;;6257350;28;20033;-50
2022/06/30 05:02:44;;;;;;;45.23;31.67;;;;;;;;;;6260471;28;21773;-48
2022/06/30 05:05:45;;;;;;;48.80;32.50;;;;;;;;;;6265357;28;20052;-48
2022/06/30 05:08:47;;;;;;;49.30;34.03;;;;;;;;;;6265811;28;20083;-47
2022/06/30 05:11:48;;;;;;;45.80;32.55;;;;;;;;;;6266009;28;20049;-48
2022/06/30 05:14:49;;;;;;;51.43;34.23;;;;;;;;;;6258976;28;20110;-48
2022/06/30 05:17:49;;;;;;;51.77;35.53;;;;;;;;;;6260429;28;20049;-47
2022/06/30 05:20:51;;;;;;;49.72;35.00;;;;;;;;;;6258730;28;20131;-48
2022/06/30 05:27:11;;;;;;;52.88;35.38;;;;;;;;;;6260840;28;20048;-47
2022/06/30 05:30:11;;;;;;;51.73;35.73;;;;;;;;;;6263950;28;20069;-47
2022/06/30 05:33:12;;;;;;;51.38;34.60;;;;;;;;;;6262692;28;20071;-53
2022/06/30 05:36:12;;;;;;;49.53;35.40;;;;;;;;;;6258751;28;20494;-48
2022/06/30 05:39:14;;;;;;;52.13;35.43;;;;;;;;;;6259016;28;20654;-50
2022/06/30 05:42:15;;;;;;;;;;;;;;;;;;6264006;28;20151;-48
2022/06/30 05:45:15;;;;;;;49.65;34.85;;;;;;;;;;6263205;28;19929;-51
2022/06/30 05:48:16;;;;;;;49.67;34.50;;;;;;;;;;6264372;28;20120;-49
2022/06/30 05:51:17;;;;;;;49.65;34.65;;;;;;;;;;6265002;28;20136;-48
2022/06/30 05:54:17;;;;;;;52.60;36.37;;;;;;;;;;6260104;28;20128;-48
2022/06/30 05:57:18;;;;;;;47.28;33.42;;;;;;;;;;6258173;28;20068;-50
2022/06/30 06:00:20;;;;;;;52.50;36.43;;;;;;;;;;6259687;28;20415;-49
2022/06/30 06:03:21;;;;;;;53.45;34.55;;;;;;;;;;6263873;28;20119;-52
2022/06/30 06:06:22;;;;;;;51.60;34.80;;;;;;;;;;6264137;28;20395;-49
2022/06/30 06:09:22;;;;;;;49.07;34.47;;;;;;;;;;6264702;28;20519;-50
2022/06/30 06:12:23;;;;;;;48.67;35.00;;;;;;;;;;6249573;28;20049;-51
2022/06/30 06:15:23;;;;;;;52.93;36.33;;;;;;;;;;6256103;28;21039;-53
2022/06/30 06:18:24;;;;;;;52.80;36.30;;;;;;;;;;6257556;28;20049;-50
2022/06/30 06:21:26;;;;;;;49.63;36.67;;;;;;;;;;6258147;28;20053;-48
2022/06/30 06:24:27;;;;;;;48.35;34.78;;;;;;;;;;6257792;28;20131;-48
2022/06/30 06:27:27;;;;;;;47.77;32.43;;;;;;;;;;6256916;28;20511;-50
2022/06/30 06:30:28;;;;;;;50.50;34.13;;;;;;;;;;6258552;28;20963;-53
2022/06/30 06:33:29;;;;;;;50.97;36.60;;;;;;;;;;6257660;28;20811;-52
2022/06/30 06:36:29;;;;;;;53.37;36.90;;;;;;;;;;6252136;28;20327;-47
2022/06/30 06:39:30;;;;;;;52.90;36.33;;;;;;;;;;6258073;28;20072;-49
2022/06/30 06:42:31;;;;;;;54.00;37.13;;;;;;;;;;6258347;28;20040;-55
2022/06/30 06:45:31;;;;;;;54.30;35.87;;;;;;;;;;6257049;28;20136;-49
2022/06/30 06:48:32;;;;;;;48.30;34.10;;;;;;;;;;6259228;28;20711;-52
2022/06/30 06:51:33;;;;;;;52.17;36.93;;;;;;;;;;6257321;28;20075;-54
2022/06/30 06:54:34;;;;;;;47.55;34.28;;;;;;;;;;6255309;28;20077;-47
2022/06/30 06:57:36;;;;;;;45.90;33.80;;;;;;;;;;6259079;28;20495;-57
2022/06/30 07:00:37;;;;;;;48.83;35.67;;;;;;;;;;6258193;28;20470;-51
2022/06/30 07:03:38;;;;;;;47.33;33.33;;;;;;;;;;6256209;28;20057;-48
2022/06/30 07:06:39;;;;;;;;;;;;;;;;;;6254846;28;20290;-51
2022/06/30 07:09:40;;;;;;;48.43;34.73;;;;;;;;;;6254527;28;20278;-48
2022/06/30 07:12:40;;;;;;;44.27;32.47;;;;;;;;;;6255531;28;20488;-49
2022/06/30 07:15:41;;;;;;;46.03;32.53;;;;;;;;;;6262594;28;20075;-52
2022/06/30 07:18:41;;;;;;;47.40;34.10;;;;;;;;;;6261854;28;20143;-48
2022/06/30 07:21:42;;;;;;;45.97;33.43;;;;;;;;;;6257869;28;20543;-49
2022/06/30 07:24:43;;;;;;;51.83;34.63;;;;;;;;;;6259996;28;20079;-48
2022/06/30 07:27:44;;;;;;;45.20;33.70;;;;;;;;;;6263127;28;20041;-53
2022/06/30 07:30:44;;;;;;;47.07;34.23;;;;;;;;;;6262506;28;20168;-51
2022/06/30 07:33:45;;;;;;;45.83;32.13;;;;;;;;;;6266342;28;20460;-51
2022/06/30 07:36:45;;;;;;;46.23;33.90;;;;;;;;;;6260528;28;20167;-48
2022/06/30 07:39:46;;;;;;;44.73;32.63;;;;;;;;;;6261879;28;20072;-50
2022/06/30 07:42:48;;;;;;;43.80;32.90;;;;;;;;;;6261893;28;20132;-56
2022/06/30 07:45:48;;;;;;;44.83;31.63;;;;;;;;;;6261283;28;20072;-48
2022/06/30 07:48:50;;;;;;;43.93;31.47;;;;;;;;;;6260258;28;20151;-47
2022/06/30 07:51:50;;;;;;;;;;;;;;;;;;6262677;28;20041;-50
2022/06/30 07:54:51;;;;;;;39.53;27.53;;;;;;;;;;6259996;28;20094;-49
2022/06/30 07:57:52;;;;;;;;;;;;;;;;;;6261900;28;20537;-50
2022/06/30 08:00:53;;;;;;;43.27;29.77;;;;;;;;;;6260953;28;19925;-49
2022/06/30 08:03:54;;;;;;;41.30;29.02;;;;;;;;;;6261220;28;20045;-51
2022/06/30 08:06:55;;;;;;;37.77;27.90;;;;;;;;;;6258864;28;20172;-49
2022/06/30 08:09:55;;;;;;;34.97;26.77;;;;;;;;;;6260630;28;20458;-48
2022/06/30 08:12:56;;;;;;;35.77;26.90;;;;;;;;;;6259934;28;20405;-50
2022/06/30 08:15:56;;;;;;;34.40;26.30;;;;;;;;;;6262023;28;20098;-49
2022/06/30 08:18:57;;;;;;;37.73;27.70;;;;;;;;;;6261721;28;20132;-48
2022/06/30 08:21:58;;;;;;;34.43;26.30;;;;;;;;;;6263012;28;20076;-50
2022/06/30 08:24:58;;;;;;;34.67;26.60;;;;;;;;;;6259735;28;20298;-47
2022/06/30 08:27:59;;;;;;;37.17;25.33;;;;;;;;;;6261701;28;20045;-48
2022/06/30 08:31:01;;;;;;;31.87;25.10;;;;;;;;;;6261292;28;20037;-51
2022/06/30 08:34:02;;;;;;;33.40;25.50;;;;;;;;;;6261062;28;20057;-47
2022/06/30 08:37:04;;;;;;;28.25;23.60;;;;;;;;;;6259098;28;20049;-48
2022/06/30 08:43:25;;;;;;;25.48;22.75;;;;;;;;;;6260965;28;20099;-47
2022/06/30 08:46:26;;;;;;;;;;;;;;;;;;6259321;28;20196;-49
2022/06/30 08:49:28;;;;;;;31.42;23.90;;;;;;;;;;6260570;28;19966;-58
2022/06/30 08:52:30;;;;;;;30.27;22.70;;;;;;;;;;6265591;28;20061;-48
2022/06/30 08:55:32;;;;;;;27.10;21.67;;;;;;;;;;6264461;28;20070;-56
2022/06/30 08:58:34;;;;;;;27.60;19.90;;;;;;;;;;6264276;28;20053;-49
2022/06/30 09:01:35;;;;;;;27.13;20.52;;;;;;;;;;6265038;28;20115;-49
2022/06/30 09:04:36;;;;;;;23.45;18.90;;;;;;;;;;6265468;28;20045;-50
2022/06/30 09:07:37;;;;;;;21.93;18.50;;;;;;;;;;6262247;28;20084;-51
2022/06/30 09:10:49;;;;;;;23.90;20.30;;;;;;;;;;6264811;28;20055;-49
2022/06/30 09:13:50;;;;;;;24.50;20.10;;;;;;;;;;6262810;28;20095;-49
2022/06/30 09:16:53;;;;;;;22.90;16.70;;;;;;;;;;6263286;28;20697;-48
2022/06/30 09:20:00;;;;;;;22.20;18.80;;;;;;;;;;6264874;28;20052;-48
2022/06/30 09:23:17;;;;;;;22.75;19.45;;;;;;;;;;6264760;28;20106;-56
2022/06/30 09:26:22;;;;;;;23.23;18.90;;;;;;;;;;6265182;28;20095;-48
2022/06/30 09:29:23;;;;;;;21.33;17.90;;;;;;;;;;6262357;28;20045;-54
2022/06/30 09:32:23;;;;;;;21.47;18.37;;;;;;;;;;6264967;28;20599;-59
2022/06/30 09:35:26;;;;;;;19.98;17.40;;;;;;;;;;6264457;28;20055;-52
2022/06/30 09:38:26;;;;;;;19.52;17.40;;;;;;;;;;6256225;28;20052;-48
2022/06/30 09:41:33;;;;;;;19.30;17.15;;;;;;;;;;6264518;28;20485;-49
2022/06/30 09:44:34;;;;;;;23.02;17.88;;;;;;;;;;6263452;28;20049;-48
2022/06/30 09:47:35;;;;;;;23.77;18.90;;;;;;;;;;6263400;28;20103;-48
2022/06/30 09:50:37;;;;;;;20.73;18.50;;;;;;;;;;6263476;28;20052;-49
2022/06/30 09:53:38;;;;;;;19.95;17.85;;;;;;;;;;6264173;28;20077;-49
2022/06/30 09:56:39;;;;;;;17.85;15.95;;;;;;;;;;6262465;28;20110;-57
2022/06/30 09:59:40;;;;;;;19.30;14.45;;;;;;;;;;6263578;28;20048;-51
2022/06/30 10:02:45;;;;;;;17.45;14.15;;;;;;;;;;6264797;28;20072;-49
2022/06/30 10:06:05;;;;;;;19.25;16.42;;;;;;;;;;6265860;28;20060;-48
2022/06/30 10:09:06;;;;;;;23.65;16.90;;;;;;;;;;6254223;28;20144;-49
2022/06/30 10:12:07;;;;;;;20.60;16.17;;;;;;;;;;6235130;28;20056;-50
2022/06/30 10:15:08;;;;;;;22.77;17.30;;;;;;;;;;6241262;28;20063;-46
2022/06/30 10:18:10;;;;;;;19.00;15.52;;;;;;;;;;6232843;28;20057;-48
2022/06/30 10:21:10;;;;;;;19.42;16.02;;;;;;;;;;6234595;28;20053;-46
2022/06/30 10:24:12;;;;;;;20.00;17.88;;;;;;;;;;6238126;28;20049;-47
2022/06/30 10:27:12;;;;;;;20.38;17.17;;;;;;;;;;6234683;28;20049;-46
2022/06/30 10:30:16;;;;;;;25.98;17.48;;;;;;;;;;6233463;28;21114;-49
2022/06/30 10:33:47;;;;;;;20.10;16.55;;;;;;;;;;6235326;28;20065;-49
2022/06/30 10:37:23;;;;;;;19.75;17.60;;;;;;;;;;6235572;28;20083;-47
2022/06/30 10:40:40;;;;;;;23.05;19.20;;;;;;;;;;6227437;28;20045;-48
2022/06/30 10:44:05;;;;;;;22.58;20.17;;;;;;;;;;6236446;28;20147;-48
2022/06/30 10:47:07;;;;;;;24.88;20.48;;;;;;;;;;6238043;28;20139;-46
2022/06/30 10:50:08;;;;;;;24.45;20.17;;;;;;;;;;6233672;28;20184;-48
2022/06/30 10:53:10;;;;;;;;;;;;;;;;;;6237323;28;20075;-46
2022/06/30 10:56:11;;;;;;;24.67;21.98;;;;;;;;;;6236553;28;20301;-47
2022/06/30 10:59:13;;;;;;;25.95;22.08;;;;;;;;;;6237657;28;20146;-48
2022/06/30 11:02:14;;;;;;;25.27;20.52;;;;;;;;;;6234263;28;20087;-48
2022/06/30 11:05:27;;;;;;;22.23;19.88;;;;;;;;;;6234683;28;20104;-48
2022/06/30 11:08:50;;;;;;;21.63;17.60;;;;;;;;;;6237776;28;20092;-49
2022/06/30 11:11:54;;;;;;;19.48;14.90;;;;;;;;;;6235913;28;20536;-49
2022/06/30 11:14:57;;;;;;;17.35;13.20;;;;;;;;;;6238350;28;20107;-46
2022/06/30 11:17:58;;;;;;;16.98;14.55;;;;;;;;;;6235875;28;20095;-49
2022/06/30 11:20:59;;;;;;;15.82;13.43;;;;;;;;;;6234330;28;20088;-48
2022/06/30 11:24:02;;;;;;;;;;;;;;;;;;6236900;28;20048;-49
2022/06/30 11:27:24;;;;;;;14.15;11.48;;;;;;;;;;6234838;28;20725;-51
2022/06/30 11:30:30;;;;;;;21.92;11.88;;;;;;;;;;6232045;28;20049;-48
2022/06/30 11:33:30;;;;;;;14.35;11.82;;;;;;;;;;6235420;28;21446;-47
2022/06/30 11:36:32;;;;;;;;;;;;;;;;;;6238576;28;20057;-48
2022/06/30 11:39:33;;;;;;;13.32;11.60;;;;;;;;;;6237932;28;20442;-52
2022/06/30 11:42:34;;;;;;;;;;;;;;;;;;6236222;28;20416;-47
2022/06/30 11:45:34;;;;;;;14.05;12.00;;;;;;;;;;6237182;28;20622;-52
2022/06/30 11:48:37;;;;;;;;;;;;;;;;;;6237205;28;20057;-52
2022/06/30 11:51:37;;;;;;;15.70;12.00;;;;;;;;;;6234613;28;19924;-48
2022/06/30 11:54:38;;;;;;;;;;;;;;;;;;6236444;28;20412;-49
2022/06/30 11:57:41;;;;;;;13.27;11.77;;;;;;;;;;6233073;28;19972;-46
2022/06/30 12:00:42;;;;;;;14.82;11.90;;;;;;;;;;6234854;28;20045;-52
2022/06/30 12:03:43;;;;;;;15.65;11.75;;;;;;;;;;6240945;28;20522;-54
2022/06/30 12:06:44;;;;;;;14.23;11.90;;;;;;;;;;6240601;28;20053;-47
2022/06/30 12:09:45;;;;;;;15.05;11.43;;;;;;;;;;6238881;28;20403;-50
2022/06/30 12:12:46;;;;;;;13.95;11.65;;;;;;;;;;6237024;28;20970;-48
2022/06/30 12:15:47;;;;;;;15.45;11.05;;;;;;;;;;6241726;28;20092;-48
2022/06/30 12:18:47;;;;;;;;;;;;;;;;;;6240730;28;20038;-55
2022/06/30 12:21:48;;;;;;;13.10;11.73;;;;;;;;;;6236283;28;20019;-49
2022/06/30 12:24:51;;;;;;;12.20;10.98;;;;;;;;;;6239198;28;20128;-48
2022/06/30 12:27:56;;;;;;;18.25;11.68;;;;;;;;;;6241019;28;20084;-51
2022/06/30 12:30:57;;;;;;;15.68;11.20;;;;;;;;;;6239180;28;20097;-48
2022/06/30 12:34:00;;;;;;;11.57;10.45;;;;;;;;;;6238724;28;21042;-48
2022/06/30 12:37:02;;;;;;;12.05;9.75;;;;;;;;;;6238079;28;20053;-47
2022/06/30 12:40:06;;;;;;;17.88;10.73;;;;;;;;;;6235473;28;20056;-53
2022/06/30 12:43:07;;;;;;;12.68;10.10;;;;;;;;;;6238915;28;20049;-49
2022/06/30 12:46:09;;;;;;;13.55;10.77;;;;;;;;;;6238721;28;20588;-54
2022/06/30 12:49:21;;;;;;;12.70;10.43;;;;;;;;;;6239516;28;20049;-49
2022/06/30 12:52:22;;;;;;;13.07;10.15;;;;;;;;;;6234437;28;20492;-50
2022/06/30 12:55:22;;;;;;;14.65;10.57;;;;;;;;;;6239898;28;20071;-47
2022/06/30 13:48:05;;;;;;;15.87;11.97;;;;;;;;;;7643672;22;1211172;-54
2022/06/30 13:51:05;;;;;;;;;;;;;;;;;;7741297;23;20517;-46
2022/06/30 13:54:06;;;;;;;13.80;9.73;;;;;;;;;;7740680;23;19926;-49
2022/06/30 13:57:07;;;;;;;;;;;;;;;;;;7740757;23;20358;-49
2022/06/30 14:00:08;;;;;;;15.43;9.95;;;;;;;;;;7744236;23;19919;-49
2022/06/30 14:03:10;;;;;;;12.50;9.38;;;;;;;;;;7740676;23;20392;-53
2022/06/30 14:06:11;;;;;;;14.68;9.90;;;;;;;;;;7738657;23;20020;-48
2022/06/30 14:09:11;;;;;;;;;;;;;;;;;;7744063;23;20123;-47
2022/06/30 14:12:13;;;;;;;13.33;10.33;;;;;;;;;;7743042;23;19924;-54
2022/06/30 14:15:13;;;;;;;15.40;10.93;;;;;;;;;;7738553;23;20029;-48
2022/06/30 14:18:14;;;;;;;;;;;;;;;;;;7739610;23;20044;-47
2022/06/30 14:21:14;;;;;;;15.80;10.83;;;;;;;;;;7742754;23;19919;-53
2022/06/30 14:24:16;;;;;;;;;;;;;;;;;;7741253;23;20118;-49
2022/06/30 14:27:16;;;;;;;16.75;10.93;;;;;;;;;;7740843;23;20676;-48
2022/06/30 14:30:17;;;;;;;17.10;11.57;;;;;;;;;;7740812;23;20051;-57
2022/06/30 14:33:18;;;;;;;13.73;11.10;;;;;;;;;;7739211;23;20055;-50
2022/06/30 14:36:19;;;;;;;15.60;11.38;;;;;;;;;;7740055;23;20012;-52
2022/06/30 14:39:20;;;;;;;17.30;12.25;;;;;;;;;;7741476;23;20431;-48
2022/06/30 14:43:02;;;;;;;14.75;11.52;;;;;;;;;;7739467;23;20022;-49
2022/06/30 14:45:44;;;;;;;13.63;11.40;;;;;;;;;;7723139;23;20016;-48
2022/06/30 14:48:44;;;;;;;14.27;11.70;;;;;;;;;;7731895;23;20535;-47
2022/06/30 14:51:45;;;;;;;15.18;12.10;;;;;;;;;;7734628;23;20020;-47
2022/06/30 14:54:46;;;;;;;20.05;13.50;;;;;;;;;;7730832;23;20105;-50
2022/06/30 14:57:48;;;;;;;18.83;12.15;;;;;;;;;;7733447;23;20027;-47
2022/06/30 15:00:49;;;;;;;19.30;12.95;;;;;;;;;;7733816;23;20020;-47
2022/06/30 15:03:49;;;;;;;16.83;13.82;;;;;;;;;;7732732;23;20660;-47
2022/06/30 15:06:53;;;;;;;17.43;12.77;;;;;;;;;;7730781;23;20531;-47
2022/06/30 15:09:53;;;;;;;19.75;12.75;;;;;;;;;;7735290;23;20080;-47
2022/06/30 15:12:54;;;;;;;14.73;13.10;;;;;;;;;;7734043;23;20020;-48
2022/06/30 15:15:55;;;;;;;17.40;13.20;;;;;;;;;;7728851;23;20489;-51
2022/06/30 15:18:56;;;;;;;15.55;12.95;;;;;;;;;;7735062;23;20018;-46
2022/06/30 15:25:16;;;;;;;26.70;17.77;;;;;;;;;;7732456;23;20059;-47
2022/06/30 15:28:17;;;;;;;30.73;17.10;;;;;;;;;;7729378;23;20040;-47
2022/06/30 15:31:17;;;;;;;32.03;19.97;;;;;;;;;;7729441;23;20038;-48
2022/06/30 15:34:18;;;;;;;26.48;16.63;;;;;;;;;;7731280;23;20022;-47
2022/06/30 15:37:19;;;;;;;30.67;16.75;;;;;;;;;;7730656;23;20047;-46
2022/06/30 15:40:20;;;;;;;;;;;;;;;;;;7733452;23;20027;-46
2022/06/30 15:43:20;;;;;;;22.07;15.70;;;;;;;;;;7731750;23;20632;-47
2022/06/30 15:46:21;;;;;;;24.13;15.82;;;;;;;;;;7727399;23;20078;-50
2022/06/30 15:49:22;;;;;;;18.58;14.25;;;;;;;;;;7746594;23;20063;-48
2022/06/30 15:52:22;;;;;;;19.63;14.68;;;;;;;;;;7731895;23;20020;-47
2022/06/30 15:55:23;;;;;;;21.17;14.00;;;;;;;;;;7737600;23;20116;-54
2022/06/30 15:58:24;;;;;;;18.30;14.27;;;;;;;;;;7736218;23;20629;-49
2022/06/30 16:01:25;;;;;;;17.00;14.15;;;;;;;;;;7739555;23;20096;-48
2022/06/30 16:04:25;;;;;;;20.17;14.10;;;;;;;;;;7739491;23;20519;-50
2022/06/30 16:07:26;;;;;;;18.67;14.17;;;;;;;;;;7736080;23;20067;-57
2022/06/30 16:10:26;;;;;;;19.77;13.88;;;;;;;;;;7737863;23;20750;-50
2022/06/30 16:13:27;;;;;;;18.50;13.87;;;;;;;;;;7738197;23;20040;-51
2022/06/30 16:16:28;;;;;;;16.33;13.57;;;;;;;;;;7735368;23;20253;-49
2022/06/30 16:19:29;;;;;;;;;;;;;;;;;;7739797;23;20023;-58
2022/06/30 16:22:30;;;;;;;16.97;13.43;;;;;;;;;;7736569;23;19938;-47
2022/06/30 16:25:31;;;;;;;18.92;13.63;;;;;;;;;;7735231;23;20107;-49
2022/06/30 16:28:32;;;;;;;18.15;14.27;;;;;;;;;;7736640;23;20024;-52
2022/06/30 16:31:32;;;;;;;17.90;14.82;;;;;;;;;;7738901;23;20055;-54
2022/06/30 16:34:33;;;;;;;16.73;14.63;;;;;;;;;;7738890;23;20042;-49
2022/06/30 16:37:34;;;;;;;19.97;14.20;;;;;;;;;;7735393;23;20050;-54
2022/06/30 16:40:36;;;;;;;17.35;14.10;;;;;;;;;;7737942;23;20020;-52
2022/06/30 16:43:36;;;;;;;17.48;14.30;;;;;;;;;;7739095;23;20839;-49
2022/06/30 16:46:37;;;;;;;21.95;15.13;;;;;;;;;;7735719;23;20035;-49
2022/06/30 16:49:37;;;;;;;19.47;14.47;;;;;;;;;;7738034;23;21036;-47
2022/06/30 16:52:38;;;;;;;15.73;14.02;;;;;;;;;;7737157;23;20518;-56
2022/06/30 16:55:39;;;;;;;20.50;14.97;;;;;;;;;;7736162;23;20040;-53
2022/06/30 16:58:40;;;;;;;20.23;14.40;;;;;;;;;;7736777;23;20051;-48
2022/06/30 17:01:40;;;;;;;20.60;15.25;;;;;;;;;;7738032;23;20070;-48
2022/06/30 17:04:41;;;;;;;25.00;15.50;;;;;;;;;;7737718;23;20089;-51
2022/06/30 17:07:42;;;;;;;18.83;14.00;;;;;;;;;;7735266;23;20486;-50
2022/06/30 17:10:42;;;;;;;21.30;15.05;;;;;;;;;;7737844;23;20059;-48
2022/06/30 17:13:46;;;;;;;21.03;14.57;;;;;;;;;;7737769;23;20056;-55
2022/06/30 17:16:47;;;;;;;18.58;14.60;;;;;;;;;;7738629;23;20024;-49
2022/06/30 17:19:48;;;;;;;19.30;14.10;;;;;;;;;;7738262;23;20059;-50
2022/06/30 17:22:48;;;;;;;16.67;14.65;;;;;;;;;;7737957;23;20016;-54
2022/06/30 17:25:49;;;;;;;18.93;15.53;;;;;;;;;;7734994;23;20502;-47
2022/06/30 17:28:50;;;;;;;23.60;14.45;;;;;;;;;;7735797;23;20329;-53
2022/06/30 17:31:51;;;;;;;19.98;15.07;;;;;;;;;;7738047;23;20028;-48
2022/06/30 17:34:51;;;;;;;18.85;14.77;;;;;;;;;;7737633;23;20017;-46
2022/06/30 17:37:54;;;;;;;20.88;14.23;;;;;;;;;;7735215;23;20475;-49
2022/06/30 17:40:54;;;;;;;21.10;15.10;;;;;;;;;;7737639;23;20016;-49
2022/06/30 17:43:55;;;;;;;16.80;14.73;;;;;;;;;;7737130;23;20046;-54
2022/06/30 17:46:55;;;;;;;19.92;15.02;;;;;;;;;;7734804;23;20032;-47
2022/06/30 17:49:56;;;;;;;19.80;13.80;;;;;;;;;;7735243;23;20115;-52
2022/06/30 17:52:57;;;;;;;18.90;14.75;;;;;;;;;;7735023;23;20745;-49
2022/06/30 17:55:57;;;;;;;18.83;15.17;;;;;;;;;;7732497;23;20095;-50
2022/06/30 17:58:58;;;;;;;17.42;15.05;;;;;;;;;;7734607;23;20246;-51
2022/06/30 18:01:59;;;;;;;22.77;15.27;;;;;;;;;;7734823;23;20016;-50
2022/06/30 18:04:59;;;;;;;22.35;14.80;;;;;;;;;;7735732;23;20019;-51
2022/06/30 18:11:20;;;;;;;22.77;15.07;;;;;;;;;;7735122;23;20039;-50
2022/06/30 18:14:21;;;;;;;22.48;15.55;;;;;;;;;;7735327;23;20027;-46
2022/06/30 18:17:22;;;;;;;18.75;15.32;;;;;;;;;;7733870;23;20023;-50
2022/06/30 18:20:24;;;;;;;;;;;;;;;;;;7735014;23;20100;-60
2022/06/30 18:23:25;;;;;;;23.90;16.07;;;;;;;;;;7735651;23;20334;-50
2022/06/30 18:26:25;;;;;;;19.15;15.32;;;;;;;;;;7735456;23;20034;-48
2022/06/30 18:29:27;;;;;;;20.15;16.92;;;;;;;;;;7737396;23;20028;-56
2022/06/30 18:32:28;;;;;;;24.77;16.70;;;;;;;;;;7736711;23;20455;-52
2022/06/30 18:35:29;;;;;;;20.75;16.00;;;;;;;;;;7737744;23;20035;-57
2022/06/30 18:38:30;;;;;;;21.35;16.52;;;;;;;;;;7735613;23;20016;-52
2022/06/30 18:41:32;;;;;;;21.63;16.10;;;;;;;;;;7736818;23;20013;-52
2022/06/30 18:44:32;;;;;;;24.73;16.30;;;;;;;;;;7736828;23;20031;-50
2022/06/30 18:47:36;;;;;;;23.70;17.03;;;;;;;;;;7734834;23;20489;-49
2022/06/30 18:50:37;;;;;;;23.23;18.95;;;;;;;;;;7735629;23;20554;-53
2022/06/30 18:53:38;;;;;;;;;;;;;;;;;;7737140;23;20022;-54